sensor_id;sensor_type;location;lat;lon;timestamp;P1;durP1;ratioP1;P2;durP2;ratioP2
14116;SDS011;7137;51.436;6.544;2022-12-26T00:00:59;5.27;;;3.70;;
14116;SDS011;7137;51.436;6.544;2022-12-26T00:04:02;4.80;;;3.50;;
14116;SDS011;7137;51.436;6.544;2022-12-26T00:07:06;5.27;;;3.37;;
14116;SDS011;7137;51.436;6.544;2022-12-26T00:10:07;4.93;;;3.40;;
14116;SDS011;7137;51.436;6.544;2022-12-26T00:13:09;5.43;;;3.60;;
14116;SDS011;7137;51.436;6.544;2022-12-26T00:16:11;6.33;;;3.33;;
14116;SDS011;7137;51.436;6.544;2022-12-26T00:19:14;5.63;;;3.20;;
14116;SDS011;7137;51.436;6.544;2022-12-26T00:22:17;5.77;;;3.10;;
14116;SDS011;7137;51.436;6.544;2022-12-26T00:25:19;4.20;;;3.10;;
14116;SDS011;7137;51.436;6.544;2022-12-26T00:28:21;5.10;;;3.50;;
14116;SDS011;7137;51.436;6.544;2022-12-26T00:31:22;4.67;;;3.10;;
14116;SDS011;7137;51.436;6.544;2022-12-26T00:34:25;5.60;;;4.03;;
14116;SDS011;7137;51.436;6.544;2022-12-26T00:37:28;5.13;;;3.57;;
14116;SDS011;7137;51.436;6.544;2022-12-26T00:40:30;5.33;;;3.80;;
14116;SDS011;7137;51.436;6.544;2022-12-26T00:43:31;6.13;;;3.93;;
14116;SDS011;7137;51.436;6.544;2022-12-26T00:46:33;5.40;;;4.13;;
14116;SDS011;7137;51.436;6.544;2022-12-26T00:49:35;5.57;;;4.00;;
14116;SDS011;7137;51.436;6.544;2022-12-26T00:52:38;5.40;;;3.87;;
14116;SDS011;7137;51.436;6.544;2022-12-26T00:55:40;6.47;;;4.70;;
14116;SDS011;7137;51.436;6.544;2022-12-26T00:58:42;6.00;;;4.47;;
14116;SDS011;7137;51.436;6.544;2022-12-26T01:01:44;7.20;;;4.83;;
14116;SDS011;7137;51.436;6.544;2022-12-26T01:04:46;5.90;;;4.93;;
14116;SDS011;7137;51.436;6.544;2022-12-26T01:07:49;6.70;;;5.03;;
14116;SDS011;7137;51.436;6.544;2022-12-26T01:10:50;5.80;;;4.60;;
14116;SDS011;7137;51.436;6.544;2022-12-26T01:13:52;5.60;;;4.10;;
14116;SDS011;7137;51.436;6.544;2022-12-26T01:16:53;5.97;;;3.97;;
14116;SDS011;7137;51.436;6.544;2022-12-26T01:19:55;4.50;;;3.13;;
14116;SDS011;7137;51.436;6.544;2022-12-26T01:22:58;4.10;;;2.57;;
14116;SDS011;7137;51.436;6.544;2022-12-26T01:25:59;3.80;;;2.60;;
14116;SDS011;7137;51.436;6.544;2022-12-26T01:29:02;3.07;;;1.87;;
14116;SDS011;7137;51.436;6.544;2022-12-26T01:32:04;3.07;;;1.80;;
14116;SDS011;7137;51.436;6.544;2022-12-26T01:35:06;3.90;;;1.80;;
14116;SDS011;7137;51.436;6.544;2022-12-26T01:38:09;3.70;;;2.00;;
14116;SDS011;7137;51.436;6.544;2022-12-26T01:41:11;3.43;;;2.00;;
14116;SDS011;7137;51.436;6.544;2022-12-26T01:47:58;3.57;;;2.03;;
14116;SDS011;7137;51.436;6.544;2022-12-26T01:51:04;3.60;;;2.27;;
14116;SDS011;7137;51.436;6.544;2022-12-26T01:54:08;3.57;;;1.93;;
14116;SDS011;7137;51.436;6.544;2022-12-26T01:57:14;3.90;;;2.07;;
14116;SDS011;7137;51.436;6.544;2022-12-26T02:00:19;3.57;;;2.00;;
14116;SDS011;7137;51.436;6.544;2022-12-26T02:03:20;3.10;;;2.10;;
14116;SDS011;7137;51.436;6.544;2022-12-26T02:06:40;3.43;;;2.00;;
14116;SDS011;7137;51.436;6.544;2022-12-26T02:09:45;3.30;;;2.07;;
14116;SDS011;7137;51.436;6.544;2022-12-26T02:12:46;3.07;;;1.97;;
14116;SDS011;7137;51.436;6.544;2022-12-26T02:15:49;2.83;;;1.90;;
14116;SDS011;7137;51.436;6.544;2022-12-26T02:18:51;3.10;;;1.97;;
14116;SDS011;7137;51.436;6.544;2022-12-26T02:22:09;4.07;;;2.17;;
14116;SDS011;7137;51.436;6.544;2022-12-26T02:25:45;3.47;;;2.20;;
14116;SDS011;7137;51.436;6.544;2022-12-26T02:29:28;4.17;;;2.50;;
14116;SDS011;7137;51.436;6.544;2022-12-26T02:33:03;3.80;;;2.40;;
14116;SDS011;7137;51.436;6.544;2022-12-26T02:36:23;4.23;;;2.80;;
14116;SDS011;7137;51.436;6.544;2022-12-26T02:39:48;3.90;;;2.70;;
14116;SDS011;7137;51.436;6.544;2022-12-26T02:42:57;5.00;;;3.00;;
14116;SDS011;7137;51.436;6.544;2022-12-26T02:46:01;5.77;;;3.20;;
14116;SDS011;7137;51.436;6.544;2022-12-26T02:49:34;4.67;;;3.17;;
14116;SDS011;7137;51.436;6.544;2022-12-26T02:53:07;4.67;;;3.30;;
14116;SDS011;7137;51.436;6.544;2022-12-26T02:56:31;4.53;;;3.30;;
14116;SDS011;7137;51.436;6.544;2022-12-26T02:59:54;4.03;;;3.10;;
14116;SDS011;7137;51.436;6.544;2022-12-26T03:03:19;5.27;;;3.70;;
14116;SDS011;7137;51.436;6.544;2022-12-26T03:06:50;4.83;;;3.53;;
14116;SDS011;7137;51.436;6.544;2022-12-26T03:10:21;5.07;;;3.50;;
14116;SDS011;7137;51.436;6.544;2022-12-26T03:13:43;4.30;;;3.40;;
14116;SDS011;7137;51.436;6.544;2022-12-26T03:16:46;4.30;;;3.40;;
14116;SDS011;7137;51.436;6.544;2022-12-26T03:20:12;5.37;;;3.87;;
14116;SDS011;7137;51.436;6.544;2022-12-26T03:23:20;5.03;;;3.50;;
14116;SDS011;7137;51.436;6.544;2022-12-26T03:34:16;5.27;;;3.67;;
14116;SDS011;7137;51.436;6.544;2022-12-26T03:37:22;5.30;;;4.10;;
14116;SDS011;7137;51.436;6.544;2022-12-26T03:40:42;5.47;;;4.43;;
14116;SDS011;7137;51.436;6.544;2022-12-26T03:44:12;6.30;;;4.10;;
14116;SDS011;7137;51.436;6.544;2022-12-26T03:47:44;5.93;;;5.00;;
14116;SDS011;7137;51.436;6.544;2022-12-26T03:51:10;5.47;;;4.90;;
14116;SDS011;7137;51.436;6.544;2022-12-26T03:54:45;6.57;;;5.20;;
14116;SDS011;7137;51.436;6.544;2022-12-26T03:58:13;5.70;;;5.03;;
14116;SDS011;7137;51.436;6.544;2022-12-26T04:01:37;5.50;;;4.47;;
14116;SDS011;7137;51.436;6.544;2022-12-26T04:05:00;5.83;;;5.17;;
14116;SDS011;7137;51.436;6.544;2022-12-26T04:08:24;6.17;;;5.27;;
14116;SDS011;7137;51.436;6.544;2022-12-26T04:11:47;6.53;;;5.87;;
14116;SDS011;7137;51.436;6.544;2022-12-26T04:15:10;6.50;;;5.80;;
14116;SDS011;7137;51.436;6.544;2022-12-26T04:18:34;7.13;;;6.00;;
14116;SDS011;7137;51.436;6.544;2022-12-26T04:22:05;6.80;;;6.03;;
14116;SDS011;7137;51.436;6.544;2022-12-26T04:25:27;7.80;;;6.10;;
14116;SDS011;7137;51.436;6.544;2022-12-26T04:28:52;6.67;;;5.97;;
14116;SDS011;7137;51.436;6.544;2022-12-26T04:32:14;6.30;;;5.67;;
14116;SDS011;7137;51.436;6.544;2022-12-26T04:35:42;7.57;;;6.03;;
14116;SDS011;7137;51.436;6.544;2022-12-26T04:39:05;6.37;;;5.33;;
14116;SDS011;7137;51.436;6.544;2022-12-26T04:42:28;6.83;;;5.30;;
14116;SDS011;7137;51.436;6.544;2022-12-26T04:45:49;6.07;;;5.47;;
14116;SDS011;7137;51.436;6.544;2022-12-26T04:48:53;6.30;;;5.57;;
14116;SDS011;7137;51.436;6.544;2022-12-26T04:52:13;7.17;;;5.67;;
14116;SDS011;7137;51.436;6.544;2022-12-26T04:55:15;7.20;;;6.27;;
14116;SDS011;7137;51.436;6.544;2022-12-26T04:58:17;8.20;;;6.67;;
14116;SDS011;7137;51.436;6.544;2022-12-26T05:01:19;8.33;;;6.40;;
14116;SDS011;7137;51.436;6.544;2022-12-26T05:04:40;7.50;;;6.80;;
14116;SDS011;7137;51.436;6.544;2022-12-26T05:07:59;7.30;;;6.30;;
14116;SDS011;7137;51.436;6.544;2022-12-26T05:11:18;7.93;;;6.97;;
14116;SDS011;7137;51.436;6.544;2022-12-26T05:14:20;8.10;;;7.30;;
14116;SDS011;7137;51.436;6.544;2022-12-26T05:17:21;8.07;;;7.27;;
14116;SDS011;7137;51.436;6.544;2022-12-26T05:20:42;8.33;;;7.40;;
14116;SDS011;7137;51.436;6.544;2022-12-26T05:24:00;8.10;;;7.03;;
14116;SDS011;7137;51.436;6.544;2022-12-26T05:27:20;8.03;;;6.60;;
14116;SDS011;7137;51.436;6.544;2022-12-26T05:30:40;9.33;;;6.70;;
14116;SDS011;7137;51.436;6.544;2022-12-26T05:33:42;7.77;;;6.67;;
14116;SDS011;7137;51.436;6.544;2022-12-26T05:37:03;9.23;;;7.17;;
14116;SDS011;7137;51.436;6.544;2022-12-26T05:40:06;9.20;;;7.77;;
14116;SDS011;7137;51.436;6.544;2022-12-26T05:43:08;7.67;;;6.70;;
14116;SDS011;7137;51.436;6.544;2022-12-26T05:46:09;7.37;;;6.33;;
14116;SDS011;7137;51.436;6.544;2022-12-26T05:49:11;8.60;;;6.33;;
14116;SDS011;7137;51.436;6.544;2022-12-26T05:52:14;7.23;;;6.00;;
14116;SDS011;7137;51.436;6.544;2022-12-26T05:55:15;7.10;;;4.90;;
14116;SDS011;7137;51.436;6.544;2022-12-26T05:58:17;6.17;;;5.10;;
14116;SDS011;7137;51.436;6.544;2022-12-26T06:01:19;6.23;;;5.23;;
14116;SDS011;7137;51.436;6.544;2022-12-26T06:04:20;6.80;;;5.67;;
14116;SDS011;7137;51.436;6.544;2022-12-26T06:07:23;7.60;;;5.27;;
14116;SDS011;7137;51.436;6.544;2022-12-26T06:10:25;6.87;;;5.40;;
14116;SDS011;7137;51.436;6.544;2022-12-26T06:13:28;6.87;;;5.43;;
14116;SDS011;7137;51.436;6.544;2022-12-26T06:16:30;6.03;;;5.10;;
14116;SDS011;7137;51.436;6.544;2022-12-26T06:19:31;6.57;;;5.23;;
14116;SDS011;7137;51.436;6.544;2022-12-26T06:22:34;6.40;;;4.63;;
14116;SDS011;7137;51.436;6.544;2022-12-26T06:25:36;5.93;;;5.10;;
14116;SDS011;7137;51.436;6.544;2022-12-26T06:28:38;6.23;;;4.70;;
14116;SDS011;7137;51.436;6.544;2022-12-26T06:31:40;6.60;;;5.20;;
14116;SDS011;7137;51.436;6.544;2022-12-26T06:34:42;7.07;;;5.20;;
14116;SDS011;7137;51.436;6.544;2022-12-26T06:37:45;7.00;;;5.67;;
14116;SDS011;7137;51.436;6.544;2022-12-26T06:40:46;7.23;;;5.40;;
14116;SDS011;7137;51.436;6.544;2022-12-26T06:43:48;8.23;;;5.50;;
14116;SDS011;7137;51.436;6.544;2022-12-26T06:46:50;6.80;;;5.43;;
14116;SDS011;7137;51.436;6.544;2022-12-26T06:49:51;8.50;;;5.70;;
14116;SDS011;7137;51.436;6.544;2022-12-26T06:52:54;7.20;;;5.63;;
14116;SDS011;7137;51.436;6.544;2022-12-26T06:56:03;6.80;;;5.27;;
14116;SDS011;7137;51.436;6.544;2022-12-26T06:59:05;6.47;;;5.37;;
14116;SDS011;7137;51.436;6.544;2022-12-26T07:02:08;5.77;;;4.70;;
14116;SDS011;7137;51.436;6.544;2022-12-26T07:05:09;7.53;;;5.60;;
14116;SDS011;7137;51.436;6.544;2022-12-26T07:08:12;6.97;;;5.57;;
14116;SDS011;7137;51.436;6.544;2022-12-26T07:11:14;7.47;;;5.63;;
14116;SDS011;7137;51.436;6.544;2022-12-26T07:14:16;6.80;;;5.27;;
14116;SDS011;7137;51.436;6.544;2022-12-26T07:17:18;6.90;;;5.23;;
14116;SDS011;7137;51.436;6.544;2022-12-26T07:20:19;6.57;;;5.20;;
14116;SDS011;7137;51.436;6.544;2022-12-26T07:23:22;7.40;;;5.20;;
14116;SDS011;7137;51.436;6.544;2022-12-26T07:26:24;6.83;;;4.70;;
14116;SDS011;7137;51.436;6.544;2022-12-26T07:29:27;6.57;;;4.73;;
14116;SDS011;7137;51.436;6.544;2022-12-26T07:32:28;6.20;;;4.40;;
14116;SDS011;7137;51.436;6.544;2022-12-26T07:35:30;8.23;;;4.60;;
14116;SDS011;7137;51.436;6.544;2022-12-26T07:38:33;5.90;;;4.20;;
14116;SDS011;7137;51.436;6.544;2022-12-26T07:41:35;6.27;;;4.00;;
14116;SDS011;7137;51.436;6.544;2022-12-26T07:44:54;7.37;;;4.13;;
14116;SDS011;7137;51.436;6.544;2022-12-26T07:47:56;6.53;;;4.23;;
14116;SDS011;7137;51.436;6.544;2022-12-26T07:51:00;5.10;;;3.70;;
14116;SDS011;7137;51.436;6.544;2022-12-26T07:54:03;5.27;;;3.80;;
14116;SDS011;7137;51.436;6.544;2022-12-26T07:57:04;4.90;;;3.30;;
14116;SDS011;7137;51.436;6.544;2022-12-26T08:00:07;5.43;;;2.90;;
14116;SDS011;7137;51.436;6.544;2022-12-26T08:03:10;5.20;;;2.50;;
14116;SDS011;7137;51.436;6.544;2022-12-26T08:06:12;4.13;;;2.57;;
14116;SDS011;7137;51.436;6.544;2022-12-26T08:09:14;5.33;;;2.60;;
14116;SDS011;7137;51.436;6.544;2022-12-26T08:12:16;4.93;;;2.60;;
14116;SDS011;7137;51.436;6.544;2022-12-26T08:15:20;4.07;;;2.60;;
14116;SDS011;7137;51.436;6.544;2022-12-26T08:18:22;3.43;;;2.10;;
14116;SDS011;7137;51.436;6.544;2022-12-26T08:21:24;4.13;;;2.50;;
14116;SDS011;7137;51.436;6.544;2022-12-26T08:24:27;4.13;;;2.37;;
14116;SDS011;7137;51.436;6.544;2022-12-26T08:27:28;3.77;;;2.30;;
14116;SDS011;7137;51.436;6.544;2022-12-26T08:30:30;3.47;;;2.03;;
14116;SDS011;7137;51.436;6.544;2022-12-26T08:33:31;3.77;;;2.30;;
14116;SDS011;7137;51.436;6.544;2022-12-26T08:36:32;3.63;;;2.30;;
14116;SDS011;7137;51.436;6.544;2022-12-26T08:39:35;4.00;;;2.23;;
14116;SDS011;7137;51.436;6.544;2022-12-26T08:42:37;3.77;;;2.20;;
14116;SDS011;7137;51.436;6.544;2022-12-26T08:45:38;4.83;;;2.20;;
14116;SDS011;7137;51.436;6.544;2022-12-26T08:48:40;3.47;;;1.90;;
14116;SDS011;7137;51.436;6.544;2022-12-26T08:51:42;3.17;;;1.80;;
14116;SDS011;7137;51.436;6.544;2022-12-26T08:54:45;3.77;;;1.90;;
14116;SDS011;7137;51.436;6.544;2022-12-26T08:57:46;4.00;;;1.70;;
14116;SDS011;7137;51.436;6.544;2022-12-26T09:00:48;4.13;;;1.60;;
14116;SDS011;7137;51.436;6.544;2022-12-26T09:03:51;4.63;;;1.50;;
14116;SDS011;7137;51.436;6.544;2022-12-26T09:06:53;4.60;;;1.40;;
14116;SDS011;7137;51.436;6.544;2022-12-26T09:09:56;2.63;;;1.30;;
14116;SDS011;7137;51.436;6.544;2022-12-26T09:12:57;4.13;;;1.83;;
14116;SDS011;7137;51.436;6.544;2022-12-26T09:16:05;3.17;;;1.30;;
14116;SDS011;7137;51.436;6.544;2022-12-26T09:19:09;2.60;;;1.33;;
14116;SDS011;7137;51.436;6.544;2022-12-26T09:22:12;4.13;;;1.30;;
14116;SDS011;7137;51.436;6.544;2022-12-26T09:25:32;3.33;;;1.20;;
14116;SDS011;7137;51.436;6.544;2022-12-26T09:28:34;4.03;;;1.30;;
14116;SDS011;7137;51.436;6.544;2022-12-26T09:31:36;5.30;;;1.30;;
14116;SDS011;7137;51.436;6.544;2022-12-26T09:34:37;1.83;;;0.90;;
14116;SDS011;7137;51.436;6.544;2022-12-26T09:37:39;3.57;;;1.10;;
14116;SDS011;7137;51.436;6.544;2022-12-26T09:40:46;4.43;;;1.10;;
14116;SDS011;7137;51.436;6.544;2022-12-26T09:43:56;3.63;;;1.20;;
14116;SDS011;7137;51.436;6.544;2022-12-26T09:47:06;3.80;;;1.10;;
14116;SDS011;7137;51.436;6.544;2022-12-26T09:50:22;3.30;;;1.20;;
14116;SDS011;7137;51.436;6.544;2022-12-26T09:53:28;3.60;;;0.97;;
14116;SDS011;7137;51.436;6.544;2022-12-26T09:56:35;3.80;;;1.50;;
14116;SDS011;7137;51.436;6.544;2022-12-26T09:59:40;3.20;;;1.03;;
14116;SDS011;7137;51.436;6.544;2022-12-26T10:02:46;3.53;;;1.10;;
14116;SDS011;7137;51.436;6.544;2022-12-26T10:09:17;2.70;;;1.00;;
14116;SDS011;7137;51.436;6.544;2022-12-26T10:12:36;4.73;;;1.10;;
14116;SDS011;7137;51.436;6.544;2022-12-26T10:15:43;3.33;;;0.80;;
14116;SDS011;7137;51.436;6.544;2022-12-26T10:18:52;3.93;;;1.13;;
14116;SDS011;7137;51.436;6.544;2022-12-26T10:22:06;4.53;;;1.20;;
14116;SDS011;7137;51.436;6.544;2022-12-26T10:25:15;3.30;;;1.10;;
14116;SDS011;7137;51.436;6.544;2022-12-26T10:28:24;2.47;;;0.90;;
14116;SDS011;7137;51.436;6.544;2022-12-26T10:31:33;3.70;;;1.00;;
14116;SDS011;7137;51.436;6.544;2022-12-26T10:34:39;1.87;;;0.97;;
14116;SDS011;7137;51.436;6.544;2022-12-26T10:37:42;3.97;;;1.00;;
14116;SDS011;7137;51.436;6.544;2022-12-26T10:40:44;4.10;;;1.20;;
14116;SDS011;7137;51.436;6.544;2022-12-26T10:43:51;2.77;;;0.90;;
14116;SDS011;7137;51.436;6.544;2022-12-26T10:47:02;3.63;;;1.17;;
14116;SDS011;7137;51.436;6.544;2022-12-26T10:50:14;2.70;;;1.07;;
14116;SDS011;7137;51.436;6.544;2022-12-26T10:53:17;2.63;;;0.90;;
14116;SDS011;7137;51.436;6.544;2022-12-26T10:56:19;3.47;;;1.00;;
14116;SDS011;7137;51.436;6.544;2022-12-26T10:59:25;3.43;;;0.87;;
14116;SDS011;7137;51.436;6.544;2022-12-26T11:02:35;5.20;;;1.23;;
14116;SDS011;7137;51.436;6.544;2022-12-26T11:05:38;3.03;;;1.07;;
14116;SDS011;7137;51.436;6.544;2022-12-26T11:08:45;2.83;;;0.73;;
14116;SDS011;7137;51.436;6.544;2022-12-26T11:11:49;4.83;;;1.27;;
14116;SDS011;7137;51.436;6.544;2022-12-26T11:14:58;3.37;;;0.90;;
14116;SDS011;7137;51.436;6.544;2022-12-26T11:18:06;3.33;;;0.90;;
14116;SDS011;7137;51.436;6.544;2022-12-26T11:21:19;3.23;;;1.03;;
14116;SDS011;7137;51.436;6.544;2022-12-26T11:24:23;3.77;;;0.90;;
14116;SDS011;7137;51.436;6.544;2022-12-26T11:27:25;4.00;;;1.00;;
14116;SDS011;7137;51.436;6.544;2022-12-26T11:30:28;2.50;;;1.03;;
14116;SDS011;7137;51.436;6.544;2022-12-26T11:33:32;2.40;;;1.00;;
14116;SDS011;7137;51.436;6.544;2022-12-26T11:36:43;4.77;;;1.10;;
14116;SDS011;7137;51.436;6.544;2022-12-26T11:39:48;4.23;;;1.10;;
14116;SDS011;7137;51.436;6.544;2022-12-26T11:42:53;4.03;;;1.00;;
14116;SDS011;7137;51.436;6.544;2022-12-26T11:45:58;4.03;;;1.20;;
14116;SDS011;7137;51.436;6.544;2022-12-26T11:48:59;5.13;;;1.20;;
14116;SDS011;7137;51.436;6.544;2022-12-26T11:55:33;4.53;;;0.97;;
14116;SDS011;7137;51.436;6.544;2022-12-26T11:58:37;5.67;;;0.90;;
14116;SDS011;7137;51.436;6.544;2022-12-26T12:01:40;4.20;;;1.20;;
14116;SDS011;7137;51.436;6.544;2022-12-26T12:04:41;3.67;;;0.93;;
14116;SDS011;7137;51.436;6.544;2022-12-26T12:07:48;3.87;;;0.93;;
14116;SDS011;7137;51.436;6.544;2022-12-26T12:11:11;3.57;;;1.07;;
14116;SDS011;7137;51.436;6.544;2022-12-26T12:14:26;2.10;;;0.90;;
14116;SDS011;7137;51.436;6.544;2022-12-26T12:17:37;4.43;;;0.80;;
14116;SDS011;7137;51.436;6.544;2022-12-26T12:20:49;5.73;;;1.20;;
14116;SDS011;7137;51.436;6.544;2022-12-26T12:27:35;4.27;;;1.30;;
14116;SDS011;7137;51.436;6.544;2022-12-26T12:30:44;4.00;;;1.47;;
14116;SDS011;7137;51.436;6.544;2022-12-26T12:33:58;5.23;;;1.10;;
14116;SDS011;7137;51.436;6.544;2022-12-26T12:37:16;3.37;;;1.30;;
14116;SDS011;7137;51.436;6.544;2022-12-26T12:40:31;4.37;;;1.47;;
14116;SDS011;7137;51.436;6.544;2022-12-26T12:43:43;6.07;;;1.53;;
14116;SDS011;7137;51.436;6.544;2022-12-26T12:46:55;5.47;;;1.77;;
14116;SDS011;7137;51.436;6.544;2022-12-26T12:50:12;6.43;;;1.40;;
14116;SDS011;7137;51.436;6.544;2022-12-26T12:53:22;4.93;;;1.53;;
14116;SDS011;7137;51.436;6.544;2022-12-26T12:56:34;5.37;;;1.70;;
14116;SDS011;7137;51.436;6.544;2022-12-26T12:59:46;5.80;;;1.70;;
14116;SDS011;7137;51.436;6.544;2022-12-26T13:02:58;6.87;;;1.80;;
14116;SDS011;7137;51.436;6.544;2022-12-26T13:06:07;6.33;;;1.90;;
14116;SDS011;7137;51.436;6.544;2022-12-26T13:09:14;5.77;;;1.30;;
14116;SDS011;7137;51.436;6.544;2022-12-26T13:12:20;6.37;;;2.23;;
14116;SDS011;7137;51.436;6.544;2022-12-26T13:15:30;3.73;;;1.30;;
14116;SDS011;7137;51.436;6.544;2022-12-26T13:18:36;6.47;;;1.63;;
14116;SDS011;7137;51.436;6.544;2022-12-26T13:21:42;6.00;;;1.60;;
14116;SDS011;7137;51.436;6.544;2022-12-26T13:24:48;5.60;;;1.93;;
14116;SDS011;7137;51.436;6.544;2022-12-26T13:27:53;6.97;;;2.07;;
14116;SDS011;7137;51.436;6.544;2022-12-26T13:31:08;9.30;;;2.90;;
14116;SDS011;7137;51.436;6.544;2022-12-26T13:34:13;7.93;;;2.40;;
14116;SDS011;7137;51.436;6.544;2022-12-26T13:40:55;9.73;;;2.80;;
14116;SDS011;7137;51.436;6.544;2022-12-26T13:44:25;7.00;;;2.87;;
14116;SDS011;7137;51.436;6.544;2022-12-26T13:47:30;8.07;;;3.03;;
14116;SDS011;7137;51.436;6.544;2022-12-26T13:50:47;11.13;;;3.47;;
14116;SDS011;7137;51.436;6.544;2022-12-26T13:53:57;10.30;;;3.30;;
14116;SDS011;7137;51.436;6.544;2022-12-26T13:57:06;10.63;;;3.53;;
14116;SDS011;7137;51.436;6.544;2022-12-26T14:00:23;9.23;;;3.10;;
14116;SDS011;7137;51.436;6.544;2022-12-26T14:03:52;10.13;;;3.90;;
14116;SDS011;7137;51.436;6.544;2022-12-26T14:07:16;8.67;;;3.53;;
14116;SDS011;7137;51.436;6.544;2022-12-26T14:10:29;10.37;;;3.60;;
14116;SDS011;7137;51.436;6.544;2022-12-26T14:13:45;8.90;;;3.20;;
14116;SDS011;7137;51.436;6.544;2022-12-26T14:16:57;8.83;;;2.67;;
14116;SDS011;7137;51.436;6.544;2022-12-26T14:20:12;9.50;;;2.73;;
14116;SDS011;7137;51.436;6.544;2022-12-26T14:23:29;8.97;;;3.00;;
14116;SDS011;7137;51.436;6.544;2022-12-26T14:26:43;8.10;;;2.43;;
14116;SDS011;7137;51.436;6.544;2022-12-26T14:29:50;10.23;;;2.70;;
14116;SDS011;7137;51.436;6.544;2022-12-26T14:33:05;10.57;;;2.90;;
14116;SDS011;7137;51.436;6.544;2022-12-26T14:36:22;8.90;;;2.70;;
14116;SDS011;7137;51.436;6.544;2022-12-26T14:39:35;10.37;;;2.50;;
14116;SDS011;7137;51.436;6.544;2022-12-26T14:43:03;9.03;;;2.50;;
14116;SDS011;7137;51.436;6.544;2022-12-26T14:49:45;8.93;;;2.70;;
14116;SDS011;7137;51.436;6.544;2022-12-26T14:52:47;8.63;;;2.80;;
14116;SDS011;7137;51.436;6.544;2022-12-26T14:55:50;6.63;;;2.70;;
14116;SDS011;7137;51.436;6.544;2022-12-26T14:58:58;8.87;;;3.20;;
14116;SDS011;7137;51.436;6.544;2022-12-26T15:02:28;8.57;;;3.40;;
14116;SDS011;7137;51.436;6.544;2022-12-26T15:05:32;7.47;;;2.83;;
14116;SDS011;7137;51.436;6.544;2022-12-26T15:08:39;7.07;;;2.50;;
14116;SDS011;7137;51.436;6.544;2022-12-26T15:12:01;9.30;;;2.57;;
14116;SDS011;7137;51.436;6.544;2022-12-26T15:19:10;7.17;;;2.37;;
14116;SDS011;7137;51.436;6.544;2022-12-26T15:26:23;7.30;;;2.17;;
14116;SDS011;7137;51.436;6.544;2022-12-26T15:29:56;5.93;;;1.50;;
14116;SDS011;7137;51.436;6.544;2022-12-26T15:33:09;6.00;;;1.60;;
14116;SDS011;7137;51.436;6.544;2022-12-26T15:36:18;6.47;;;1.80;;
14116;SDS011;7137;51.436;6.544;2022-12-26T15:39:26;7.00;;;1.73;;
14116;SDS011;7137;51.436;6.544;2022-12-26T15:42:37;5.03;;;1.50;;
14116;SDS011;7137;51.436;6.544;2022-12-26T15:45:59;4.87;;;1.30;;
14116;SDS011;7137;51.436;6.544;2022-12-26T15:49:25;5.23;;;1.13;;
14116;SDS011;7137;51.436;6.544;2022-12-26T15:52:38;3.13;;;1.20;;
14116;SDS011;7137;51.436;6.544;2022-12-26T15:59:30;5.13;;;1.53;;
14116;SDS011;7137;51.436;6.544;2022-12-26T16:02:58;6.47;;;1.70;;
14116;SDS011;7137;51.436;6.544;2022-12-26T16:06:25;5.53;;;2.17;;
14116;SDS011;7137;51.436;6.544;2022-12-26T16:09:40;5.87;;;1.90;;
14116;SDS011;7137;51.436;6.544;2022-12-26T16:12:54;5.80;;;1.80;;
14116;SDS011;7137;51.436;6.544;2022-12-26T16:15:58;5.83;;;1.70;;
14116;SDS011;7137;51.436;6.544;2022-12-26T16:22:24;5.43;;;1.57;;
14116;SDS011;7137;51.436;6.544;2022-12-26T16:25:45;5.67;;;1.40;;
14116;SDS011;7137;51.436;6.544;2022-12-26T16:28:48;5.20;;;1.40;;
14116;SDS011;7137;51.436;6.544;2022-12-26T16:31:50;3.83;;;1.60;;
14116;SDS011;7137;51.436;6.544;2022-12-26T16:34:51;5.37;;;2.00;;
14116;SDS011;7137;51.436;6.544;2022-12-26T16:37:55;5.60;;;1.70;;
14116;SDS011;7137;51.436;6.544;2022-12-26T16:40:59;7.03;;;2.00;;
14116;SDS011;7137;51.436;6.544;2022-12-26T16:44:11;5.43;;;1.80;;
14116;SDS011;7137;51.436;6.544;2022-12-26T16:47:27;5.10;;;1.83;;
14116;SDS011;7137;51.436;6.544;2022-12-26T16:50:32;3.93;;;1.57;;
14116;SDS011;7137;51.436;6.544;2022-12-26T16:53:41;5.37;;;1.67;;
14116;SDS011;7137;51.436;6.544;2022-12-26T16:56:46;7.47;;;1.77;;
14116;SDS011;7137;51.436;6.544;2022-12-26T16:59:50;4.83;;;1.70;;
14116;SDS011;7137;51.436;6.544;2022-12-26T17:02:56;5.50;;;1.60;;
14116;SDS011;7137;51.436;6.544;2022-12-26T17:06:03;4.70;;;1.53;;
14116;SDS011;7137;51.436;6.544;2022-12-26T17:09:12;5.23;;;1.70;;
14116;SDS011;7137;51.436;6.544;2022-12-26T17:12:16;6.23;;;1.70;;
14116;SDS011;7137;51.436;6.544;2022-12-26T17:15:21;4.90;;;1.97;;
14116;SDS011;7137;51.436;6.544;2022-12-26T17:18:40;5.77;;;1.97;;
14116;SDS011;7137;51.436;6.544;2022-12-26T17:25:21;4.83;;;1.70;;
14116;SDS011;7137;51.436;6.544;2022-12-26T17:28:26;6.83;;;2.93;;
14116;SDS011;7137;51.436;6.544;2022-12-26T17:31:31;6.17;;;1.87;;
14116;SDS011;7137;51.436;6.544;2022-12-26T17:34:36;6.47;;;1.80;;
14116;SDS011;7137;51.436;6.544;2022-12-26T17:37:39;5.17;;;1.70;;
14116;SDS011;7137;51.436;6.544;2022-12-26T17:40:44;5.60;;;1.57;;
14116;SDS011;7137;51.436;6.544;2022-12-26T17:43:47;9.53;;;3.80;;
14116;SDS011;7137;51.436;6.544;2022-12-26T17:46:50;11.90;;;5.07;;
14116;SDS011;7137;51.436;6.544;2022-12-26T17:49:52;17.87;;;6.77;;
14116;SDS011;7137;51.436;6.544;2022-12-26T17:52:54;7.90;;;2.70;;
14116;SDS011;7137;51.436;6.544;2022-12-26T17:56:06;7.00;;;2.50;;
14116;SDS011;7137;51.436;6.544;2022-12-26T17:59:13;6.90;;;1.87;;
14116;SDS011;7137;51.436;6.544;2022-12-26T18:02:15;6.60;;;1.60;;
14116;SDS011;7137;51.436;6.544;2022-12-26T18:05:17;6.10;;;2.00;;
14116;SDS011;7137;51.436;6.544;2022-12-26T18:08:23;5.03;;;2.00;;
14116;SDS011;7137;51.436;6.544;2022-12-26T18:11:28;5.43;;;1.97;;
14116;SDS011;7137;51.436;6.544;2022-12-26T18:14:30;3.43;;;1.80;;
14116;SDS011;7137;51.436;6.544;2022-12-26T18:17:32;5.27;;;2.13;;
14116;SDS011;7137;51.436;6.544;2022-12-26T18:20:33;6.13;;;2.27;;
14116;SDS011;7137;51.436;6.544;2022-12-26T18:23:35;6.00;;;2.60;;
14116;SDS011;7137;51.436;6.544;2022-12-26T18:26:38;6.43;;;2.27;;
14116;SDS011;7137;51.436;6.544;2022-12-26T18:29:40;6.83;;;2.23;;
14116;SDS011;7137;51.436;6.544;2022-12-26T18:32:43;6.77;;;1.93;;
14116;SDS011;7137;51.436;6.544;2022-12-26T18:35:45;5.40;;;2.03;;
14116;SDS011;7137;51.436;6.544;2022-12-26T18:38:47;5.60;;;1.90;;
14116;SDS011;7137;51.436;6.544;2022-12-26T18:41:50;7.37;;;2.20;;
14116;SDS011;7137;51.436;6.544;2022-12-26T18:44:52;7.43;;;2.10;;
14116;SDS011;7137;51.436;6.544;2022-12-26T18:47:55;6.97;;;2.17;;
14116;SDS011;7137;51.436;6.544;2022-12-26T18:50:57;6.70;;;2.40;;
14116;SDS011;7137;51.436;6.544;2022-12-26T18:53:58;6.53;;;3.23;;
14116;SDS011;7137;51.436;6.544;2022-12-26T18:57:01;7.30;;;2.50;;
14116;SDS011;7137;51.436;6.544;2022-12-26T19:00:03;8.60;;;2.80;;
14116;SDS011;7137;51.436;6.544;2022-12-26T19:03:06;8.17;;;2.70;;
14116;SDS011;7137;51.436;6.544;2022-12-26T19:06:07;8.17;;;3.70;;
14116;SDS011;7137;51.436;6.544;2022-12-26T19:09:11;11.23;;;4.33;;
14116;SDS011;7137;51.436;6.544;2022-12-26T19:12:16;7.93;;;3.93;;
14116;SDS011;7137;51.436;6.544;2022-12-26T19:15:17;10.27;;;3.77;;
14116;SDS011;7137;51.436;6.544;2022-12-26T19:18:19;7.33;;;2.20;;
14116;SDS011;7137;51.436;6.544;2022-12-26T19:21:21;10.10;;;2.70;;
14116;SDS011;7137;51.436;6.544;2022-12-26T19:24:22;13.73;;;4.40;;
14116;SDS011;7137;51.436;6.544;2022-12-26T19:27:25;10.13;;;3.43;;
14116;SDS011;7137;51.436;6.544;2022-12-26T19:30:27;8.87;;;2.83;;
14116;SDS011;7137;51.436;6.544;2022-12-26T19:33:28;6.87;;;2.80;;
14116;SDS011;7137;51.436;6.544;2022-12-26T19:36:30;7.77;;;2.30;;
14116;SDS011;7137;51.436;6.544;2022-12-26T19:39:32;7.47;;;2.80;;
14116;SDS011;7137;51.436;6.544;2022-12-26T19:42:35;6.20;;;2.43;;
14116;SDS011;7137;51.436;6.544;2022-12-26T19:45:37;7.70;;;2.80;;
14116;SDS011;7137;51.436;6.544;2022-12-26T19:48:38;7.53;;;2.80;;
14116;SDS011;7137;51.436;6.544;2022-12-26T19:51:40;9.43;;;3.30;;
14116;SDS011;7137;51.436;6.544;2022-12-26T19:54:42;9.30;;;3.20;;
14116;SDS011;7137;51.436;6.544;2022-12-26T19:57:45;8.90;;;3.13;;